sensor_id;sensor_type;location;lat;lon;timestamp;temperature;humidity
71173;DHT22;58875;51.996;4.504;2023-05-07T00:01:28;16.05;79.67
71173;DHT22;58875;51.996;4.504;2023-05-07T00:03:54;16.05;79.73
71173;DHT22;58875;51.996;4.504;2023-05-07T00:06:19;16.02;79.76
71173;DHT22;58875;51.996;4.504;2023-05-07T00:08:45;15.98;79.73
71173;DHT22;58875;51.996;4.504;2023-05-07T00:11:10;15.98;79.75
71173;DHT22;58875;51.996;4.504;2023-05-07T00:13:36;15.97;79.88
71173;DHT22;58875;51.996;4.504;2023-05-07T00:16:02;15.94;80.03
71173;DHT22;58875;51.996;4.504;2023-05-07T00:18:28;15.95;79.94
71173;DHT22;58875;51.996;4.504;2023-05-07T00:20:53;15.92;79.89
71173;DHT22;58875;51.996;4.504;2023-05-07T00:23:19;15.95;79.81
71173;DHT22;58875;51.996;4.504;2023-05-07T00:25:45;15.95;79.73
71173;DHT22;58875;51.996;4.504;2023-05-07T00:28:10;15.98;79.73
71173;DHT22;58875;51.996;4.504;2023-05-07T00:30:36;15.94;79.65
71173;DHT22;58875;51.996;4.504;2023-05-07T00:33:02;15.95;79.77
71173;DHT22;58875;51.996;4.504;2023-05-07T00:35:29;15.95;79.77
71173;DHT22;58875;51.996;4.504;2023-05-07T00:37:55;15.97;79.72
71173;DHT22;58875;51.996;4.504;2023-05-07T00:40:20;15.95;79.86
71173;DHT22;58875;51.996;4.504;2023-05-07T00:42:46;15.98;79.87
71173;DHT22;58875;51.996;4.504;2023-05-07T00:45:16;15.98;79.80
71173;DHT22;58875;51.996;4.504;2023-05-07T00:47:42;15.97;79.75
71173;DHT22;58875;51.996;4.504;2023-05-07T00:50:09;15.99;79.72
71173;DHT22;58875;51.996;4.504;2023-05-07T00:52:37;15.97;79.77
71173;DHT22;58875;51.996;4.504;2023-05-07T00:55:06;15.97;79.80
71173;DHT22;58875;51.996;4.504;2023-05-07T00:57:36;15.98;79.77
71173;DHT22;58875;51.996;4.504;2023-05-07T01:00:05;15.95;79.75
71173;DHT22;58875;51.996;4.504;2023-05-07T01:02:30;15.95;79.55
71173;DHT22;58875;51.996;4.504;2023-05-07T01:04:56;15.90;79.61
71173;DHT22;58875;51.996;4.504;2023-05-07T01:07:23;15.84;79.85
71173;DHT22;58875;51.996;4.504;2023-05-07T01:09:49;15.82;79.87
71173;DHT22;58875;51.996;4.504;2023-05-07T01:12:16;15.82;79.85
71173;DHT22;58875;51.996;4.504;2023-05-07T01:14:42;15.85;79.74
71173;DHT22;58875;51.996;4.504;2023-05-07T01:17:07;15.90;79.80
71173;DHT22;58875;51.996;4.504;2023-05-07T01:19:33;15.88;79.46
71173;DHT22;58875;51.996;4.504;2023-05-07T01:22:08;15.81;79.57
71173;DHT22;58875;51.996;4.504;2023-05-07T01:24:36;15.87;79.69
71173;DHT22;58875;51.996;4.504;2023-05-07T01:27:02;15.81;79.34
71173;DHT22;58875;51.996;4.504;2023-05-07T01:29:28;15.78;79.44
71173;DHT22;58875;51.996;4.504;2023-05-07T01:31:57;15.75;79.48
71173;DHT22;58875;51.996;4.504;2023-05-07T01:34:25;15.75;79.56
71173;DHT22;58875;51.996;4.504;2023-05-07T01:36:54;15.75;79.53
71173;DHT22;58875;51.996;4.504;2023-05-07T01:39:24;15.68;79.72
71173;DHT22;58875;51.996;4.504;2023-05-07T01:41:51;15.70;79.80
71173;DHT22;58875;51.996;4.504;2023-05-07T01:44:18;15.70;79.94
71173;DHT22;58875;51.996;4.504;2023-05-07T01:46:44;15.72;80.10
71173;DHT22;58875;51.996;4.504;2023-05-07T01:49:10;15.72;80.12
71173;DHT22;58875;51.996;4.504;2023-05-07T01:51:36;15.71;80.18
71173;DHT22;58875;51.996;4.504;2023-05-07T01:54:01;15.71;80.32
71173;DHT22;58875;51.996;4.504;2023-05-07T01:56:27;15.70;80.52
71173;DHT22;58875;51.996;4.504;2023-05-07T01:58:55;15.72;80.51
71173;DHT22;58875;51.996;4.504;2023-05-07T02:01:20;15.68;80.58
71173;DHT22;58875;51.996;4.504;2023-05-07T02:03:46;15.75;80.64
71173;DHT22;58875;51.996;4.504;2023-05-07T02:06:11;15.75;80.66
71173;DHT22;58875;51.996;4.504;2023-05-07T02:08:37;15.75;80.76
71173;DHT22;58875;51.996;4.504;2023-05-07T02:11:03;15.74;80.79
71173;DHT22;58875;51.996;4.504;2023-05-07T02:13:31;15.80;80.84
71173;DHT22;58875;51.996;4.504;2023-05-07T02:15:57;15.85;80.57
71173;DHT22;58875;51.996;4.504;2023-05-07T02:18:23;15.82;80.75
71173;DHT22;58875;51.996;4.504;2023-05-07T02:20:48;15.81;80.77
71173;DHT22;58875;51.996;4.504;2023-05-07T02:23:14;15.82;80.84
71173;DHT22;58875;51.996;4.504;2023-05-07T02:25:40;15.84;80.64
71173;DHT22;58875;51.996;4.504;2023-05-07T02:28:05;15.82;80.81
71173;DHT22;58875;51.996;4.504;2023-05-07T02:30:31;15.85;80.81
71173;DHT22;58875;51.996;4.504;2023-05-07T02:32:57;15.85;80.91
71173;DHT22;58875;51.996;4.504;2023-05-07T02:35:24;15.90;80.81
71173;DHT22;58875;51.996;4.504;2023-05-07T02:37:51;15.90;80.78
71173;DHT22;58875;51.996;4.504;2023-05-07T02:40:16;15.82;81.06
71173;DHT22;58875;51.996;4.504;2023-05-07T02:42:42;15.87;81.02
71173;DHT22;58875;51.996;4.504;2023-05-07T02:45:08;15.88;81.15
71173;DHT22;58875;51.996;4.504;2023-05-07T02:47:34;15.88;81.15
71173;DHT22;58875;51.996;4.504;2023-05-07T02:50:00;15.88;81.19
71173;DHT22;58875;51.996;4.504;2023-05-07T02:52:27;15.90;81.28
71173;DHT22;58875;51.996;4.504;2023-05-07T02:54:52;15.94;81.22
71173;DHT22;58875;51.996;4.504;2023-05-07T02:57:18;15.95;81.07
71173;DHT22;58875;51.996;4.504;2023-05-07T02:59:44;15.95;81.10
71173;DHT22;58875;51.996;4.504;2023-05-07T03:02:09;15.92;81.14
71173;DHT22;58875;51.996;4.504;2023-05-07T03:04:36;15.92;81.16
71173;DHT22;58875;51.996;4.504;2023-05-07T03:07:01;15.94;81.13
71173;DHT22;58875;51.996;4.504;2023-05-07T03:09:26;16.02;81.23
71173;DHT22;58875;51.996;4.504;2023-05-07T03:11:52;15.95;81.20
71173;DHT22;58875;51.996;4.504;2023-05-07T03:14:18;15.95;81.19
71173;DHT22;58875;51.996;4.504;2023-05-07T03:16:46;16.01;81.08
71173;DHT22;58875;51.996;4.504;2023-05-07T03:19:11;15.97;80.98
71173;DHT22;58875;51.996;4.504;2023-05-07T03:21:37;16.01;81.00
71173;DHT22;58875;51.996;4.504;2023-05-07T03:24:03;15.97;80.98
71173;DHT22;58875;51.996;4.504;2023-05-07T03:26:28;15.97;80.98
71173;DHT22;58875;51.996;4.504;2023-05-07T03:28:54;15.97;80.82
71173;DHT22;58875;51.996;4.504;2023-05-07T03:31:20;15.95;80.87
71173;DHT22;58875;51.996;4.504;2023-05-07T03:33:54;16.01;80.83
71173;DHT22;58875;51.996;4.504;2023-05-07T03:36:20;16.04;80.70
71173;DHT22;58875;51.996;4.504;2023-05-07T03:38:47;16.08;80.60
71173;DHT22;58875;51.996;4.504;2023-05-07T03:41:13;16.09;80.67
71173;DHT22;58875;51.996;4.504;2023-05-07T03:43:39;16.11;80.55
71173;DHT22;58875;51.996;4.504;2023-05-07T03:46:04;16.08;80.46
71173;DHT22;58875;51.996;4.504;2023-05-07T03:48:30;16.08;80.34
71173;DHT22;58875;51.996;4.504;2023-05-07T03:50:57;16.05;80.58
71173;DHT22;58875;51.996;4.504;2023-05-07T03:53:23;16.02;80.52
71173;DHT22;58875;51.996;4.504;2023-05-07T03:55:48;16.05;80.59
71173;DHT22;58875;51.996;4.504;2023-05-07T03:58:15;16.05;80.44
71173;DHT22;58875;51.996;4.504;2023-05-07T04:00:40;16.05;80.51
71173;DHT22;58875;51.996;4.504;2023-05-07T04:03:06;16.04;80.50
71173;DHT22;58875;51.996;4.504;2023-05-07T04:05:32;15.98;80.62
71173;DHT22;58875;51.996;4.504;2023-05-07T04:07:59;16.06;80.58
71173;DHT22;58875;51.996;4.504;2023-05-07T04:10:25;16.02;80.49
71173;DHT22;58875;51.996;4.504;2023-05-07T04:12:50;16.02;80.57
71173;DHT22;58875;51.996;4.504;2023-05-07T04:15:16;16.04;80.41
71173;DHT22;58875;51.996;4.504;2023-05-07T04:17:42;15.91;80.42
71173;DHT22;58875;51.996;4.504;2023-05-07T04:20:15;15.85;80.94
71173;DHT22;58875;51.996;4.504;2023-05-07T04:22:41;15.90;80.89
71173;DHT22;58875;51.996;4.504;2023-05-07T04:25:08;15.90;80.99
71173;DHT22;58875;51.996;4.504;2023-05-07T04:27:35;15.92;80.87
71173;DHT22;58875;51.996;4.504;2023-05-07T04:30:01;15.94;80.83
71173;DHT22;58875;51.996;4.504;2023-05-07T04:32:27;15.95;80.89
71173;DHT22;58875;51.996;4.504;2023-05-07T04:34:55;15.98;80.92
71173;DHT22;58875;51.996;4.504;2023-05-07T04:37:21;15.97;80.62
71173;DHT22;58875;51.996;4.504;2023-05-07T04:39:46;16.01;80.73
71173;DHT22;58875;51.996;4.504;2023-05-07T04:42:16;16.06;80.64
71173;DHT22;58875;51.996;4.504;2023-05-07T04:44:43;16.05;80.42
71173;DHT22;58875;51.996;4.504;2023-05-07T04:47:09;16.02;80.47
71173;DHT22;58875;51.996;4.504;2023-05-07T04:49:35;16.05;80.57
71173;DHT22;58875;51.996;4.504;2023-05-07T04:52:00;16.01;80.51
71173;DHT22;58875;51.996;4.504;2023-05-07T04:54:26;15.99;80.52
71173;DHT22;58875;51.996;4.504;2023-05-07T04:56:52;15.99;80.55
71173;DHT22;58875;51.996;4.504;2023-05-07T04:59:17;16.01;80.52
71173;DHT22;58875;51.996;4.504;2023-05-07T05:01:43;15.98;80.72
71173;DHT22;58875;51.996;4.504;2023-05-07T05:04:08;16.01;80.73
71173;DHT22;58875;51.996;4.504;2023-05-07T05:06:35;15.99;80.47
71173;DHT22;58875;51.996;4.504;2023-05-07T05:09:00;15.98;80.73
71173;DHT22;58875;51.996;4.504;2023-05-07T05:11:26;15.98;80.65
71173;DHT22;58875;51.996;4.504;2023-05-07T05:13:51;16.05;80.93
71173;DHT22;58875;51.996;4.504;2023-05-07T05:16:17;16.13;80.78
71173;DHT22;58875;51.996;4.504;2023-05-07T05:18:42;16.18;80.38
71173;DHT22;58875;51.996;4.504;2023-05-07T05:21:08;16.21;80.23
71173;DHT22;58875;51.996;4.504;2023-05-07T05:23:33;16.33;80.07
71173;DHT22;58875;51.996;4.504;2023-05-07T05:25:59;16.38;79.94
71173;DHT22;58875;51.996;4.504;2023-05-07T05:28:25;16.48;79.86
71173;DHT22;58875;51.996;4.504;2023-05-07T05:30:50;16.49;79.75
71173;DHT22;58875;51.996;4.504;2023-05-07T05:33:16;16.56;79.31
71173;DHT22;58875;51.996;4.504;2023-05-07T05:35:42;16.55;79.25
71173;DHT22;58875;51.996;4.504;2023-05-07T05:38:08;16.53;79.28
71173;DHT22;58875;51.996;4.504;2023-05-07T05:40:34;16.57;79.22
71173;DHT22;58875;51.996;4.504;2023-05-07T05:42:59;16.63;79.27
71173;DHT22;58875;51.996;4.504;2023-05-07T05:45:25;16.62;78.92
71173;DHT22;58875;51.996;4.504;2023-05-07T05:47:51;16.66;79.01
71173;DHT22;58875;51.996;4.504;2023-05-07T05:50:17;16.67;79.06
71173;DHT22;58875;51.996;4.504;2023-05-07T05:52:42;16.71;79.11
71173;DHT22;58875;51.996;4.504;2023-05-07T05:55:08;16.79;79.28
71173;DHT22;58875;51.996;4.504;2023-05-07T05:57:34;16.88;79.10
71173;DHT22;58875;51.996;4.504;2023-05-07T06:00:01;16.95;79.17
71173;DHT22;58875;51.996;4.504;2023-05-07T06:02:29;16.91;78.85
71173;DHT22;58875;51.996;4.504;2023-05-07T06:04:55;16.88;78.74
71173;DHT22;58875;51.996;4.504;2023-05-07T06:07:20;16.90;78.63
71173;DHT22;58875;51.996;4.504;2023-05-07T06:09:46;16.93;78.74
71173;DHT22;58875;51.996;4.504;2023-05-07T06:12:12;16.97;78.32
71173;DHT22;58875;51.996;4.504;2023-05-07T06:14:38;17.00;78.83
71173;DHT22;58875;51.996;4.504;2023-05-07T06:17:03;17.04;78.52
71173;DHT22;58875;51.996;4.504;2023-05-07T06:19:32;16.99;78.52
71173;DHT22;58875;51.996;4.504;2023-05-07T06:21:58;17.00;78.65
71173;DHT22;58875;51.996;4.504;2023-05-07T06:24:24;16.90;78.56
71173;DHT22;58875;51.996;4.504;2023-05-07T06:26:49;16.85;78.84
71173;DHT22;58875;51.996;4.504;2023-05-07T06:29:15;16.73;79.11
71173;DHT22;58875;51.996;4.504;2023-05-07T06:31:40;16.85;79.34
71173;DHT22;58875;51.996;4.504;2023-05-07T06:34:09;16.99;79.09
71173;DHT22;58875;51.996;4.504;2023-05-07T06:36:35;17.20;78.99
71173;DHT22;58875;51.996;4.504;2023-05-07T06:39:00;17.39;78.27
71173;DHT22;58875;51.996;4.504;2023-05-07T06:41:26;17.48;77.92
71173;DHT22;58875;51.996;4.504;2023-05-07T06:43:52;17.55;78.25
71173;DHT22;58875;51.996;4.504;2023-05-07T06:46:17;17.62;77.93
71173;DHT22;58875;51.996;4.504;2023-05-07T06:48:43;17.65;77.36
71173;DHT22;58875;51.996;4.504;2023-05-07T06:51:09;17.85;76.87
71173;DHT22;58875;51.996;4.504;2023-05-07T06:53:35;17.92;77.17
71173;DHT22;58875;51.996;4.504;2023-05-07T06:56:00;17.86;76.04
71173;DHT22;58875;51.996;4.504;2023-05-07T06:58:26;17.68;76.28
71173;DHT22;58875;51.996;4.504;2023-05-07T07:00:52;17.62;76.84
71173;DHT22;58875;51.996;4.504;2023-05-07T07:03:18;17.61;76.75
71173;DHT22;58875;51.996;4.504;2023-05-07T07:05:43;17.56;76.84
71173;DHT22;58875;51.996;4.504;2023-05-07T07:08:09;17.52;77.00
71173;DHT22;58875;51.996;4.504;2023-05-07T07:10:35;17.49;77.11
71173;DHT22;58875;51.996;4.504;2023-05-07T07:13:01;17.43;77.36
71173;DHT22;58875;51.996;4.504;2023-05-07T07:15:29;17.52;77.58
71173;DHT22;58875;51.996;4.504;2023-05-07T07:17:55;17.79;77.38
71173;DHT22;58875;51.996;4.504;2023-05-07T07:20:20;18.30;76.95
71173;DHT22;58875;51.996;4.504;2023-05-07T07:22:46;18.76;75.34
71173;DHT22;58875;51.996;4.504;2023-05-07T07:25:11;19.20;74.62
71173;DHT22;58875;51.996;4.504;2023-05-07T07:27:37;19.23;73.52
71173;DHT22;58875;51.996;4.504;2023-05-07T07:30:06;19.19;73.21
71173;DHT22;58875;51.996;4.504;2023-05-07T07:32:31;19.23;73.09
71173;DHT22;58875;51.996;4.504;2023-05-07T07:34:58;19.34;72.72
71173;DHT22;58875;51.996;4.504;2023-05-07T07:37:24;19.49;71.87
71173;DHT22;58875;51.996;4.504;2023-05-07T07:39:51;19.63;71.75
71173;DHT22;58875;51.996;4.504;2023-05-07T07:42:16;19.71;71.91
71173;DHT22;58875;51.996;4.504;2023-05-07T07:44:42;19.83;71.94
71173;DHT22;58875;51.996;4.504;2023-05-07T07:47:07;20.00;71.78
71173;DHT22;58875;51.996;4.504;2023-05-07T07:49:33;20.10;70.69
71173;DHT22;58875;51.996;4.504;2023-05-07T07:51:58;20.08;70.04
71173;DHT22;58875;51.996;4.504;2023-05-07T07:54:24;20.04;69.99
71173;DHT22;58875;51.996;4.504;2023-05-07T07:56:50;19.91;70.76
71173;DHT22;58875;51.996;4.504;2023-05-07T07:59:16;19.94;70.18
71173;DHT22;58875;51.996;4.504;2023-05-07T08:01:44;20.18;69.68
71173;DHT22;58875;51.996;4.504;2023-05-07T08:04:10;20.14;70.33
71173;DHT22;58875;51.996;4.504;2023-05-07T08:06:35;20.05;69.79
71173;DHT22;58875;51.996;4.504;2023-05-07T08:09:01;20.14;70.91
71173;DHT22;58875;51.996;4.504;2023-05-07T08:11:27;20.21;70.42
71173;DHT22;58875;51.996;4.504;2023-05-07T08:13:54;20.18;70.39
71173;DHT22;58875;51.996;4.504;2023-05-07T08:16:19;20.32;70.86
71173;DHT22;58875;51.996;4.504;2023-05-07T08:18:45;20.36;70.15
71173;DHT22;58875;51.996;4.504;2023-05-07T08:21:11;20.42;70.86
71173;DHT22;58875;51.996;4.504;2023-05-07T08:23:36;20.61;70.37
71173;DHT22;58875;51.996;4.504;2023-05-07T08:26:02;20.62;70.52
71173;DHT22;58875;51.996;4.504;2023-05-07T08:28:27;20.63;69.41
71173;DHT22;58875;51.996;4.504;2023-05-07T08:30:53;20.45;69.24
71173;DHT22;58875;51.996;4.504;2023-05-07T08:33:19;20.41;70.10
71173;DHT22;58875;51.996;4.504;2023-05-07T08:35:44;20.44;70.06
71173;DHT22;58875;51.996;4.504;2023-05-07T08:38:10;20.41;70.44
71173;DHT22;58875;51.996;4.504;2023-05-07T08:40:39;20.49;70.30
71173;DHT22;58875;51.996;4.504;2023-05-07T08:43:06;20.51;69.09
71173;DHT22;58875;51.996;4.504;2023-05-07T08:45:34;20.56;69.88
71173;DHT22;58875;51.996;4.504;2023-05-07T08:48:02;20.55;69.37
71173;DHT22;58875;51.996;4.504;2023-05-07T08:50:29;20.69;69.59
71173;DHT22;58875;51.996;4.504;2023-05-07T08:52:55;20.83;68.89
71173;DHT22;58875;51.996;4.504;2023-05-07T08:55:22;21.51;67.74
71173;DHT22;58875;51.996;4.504;2023-05-07T08:57:49;21.82;66.29
71173;DHT22;58875;51.996;4.504;2023-05-07T09:00:15;21.78;65.76
71173;DHT22;58875;51.996;4.504;2023-05-07T09:02:41;21.45;66.51
71173;DHT22;58875;51.996;4.504;2023-05-07T09:05:07;21.61;67.51
71173;DHT22;58875;51.996;4.504;2023-05-07T09:07:32;21.91;67.09
71173;DHT22;58875;51.996;4.504;2023-05-07T09:09:58;22.01;66.14
71173;DHT22;58875;51.996;4.504;2023-05-07T09:12:26;22.20;65.32
71173;DHT22;58875;51.996;4.504;2023-05-07T09:14:51;22.39;64.01
71173;DHT22;58875;51.996;4.504;2023-05-07T09:17:17;22.25;65.51
71173;DHT22;58875;51.996;4.504;2023-05-07T09:19:44;22.22;66.56
71173;DHT22;58875;51.996;4.504;2023-05-07T09:22:11;22.32;63.72
71173;DHT22;58875;51.996;4.504;2023-05-07T09:24:36;22.22;65.93
71173;DHT22;58875;51.996;4.504;2023-05-07T09:27:04;22.19;65.10
71173;DHT22;58875;51.996;4.504;2023-05-07T09:29:30;22.19;63.33
71173;DHT22;58875;51.996;4.504;2023-05-07T09:32:07;21.95;62.71
71173;DHT22;58875;51.996;4.504;2023-05-07T09:34:33;21.84;63.53
71173;DHT22;58875;51.996;4.504;2023-05-07T09:37:04;21.41;63.92
71173;DHT22;58875;51.996;4.504;2023-05-07T09:39:48;21.19;66.80
71173;DHT22;58875;51.996;4.504;2023-05-07T09:42:14;21.24;66.77
71173;DHT22;58875;51.996;4.504;2023-05-07T09:44:41;21.30;67.16
71173;DHT22;58875;51.996;4.504;2023-05-07T09:47:08;21.53;66.81
71173;DHT22;58875;51.996;4.504;2023-05-07T09:49:37;21.62;66.51
71173;DHT22;58875;51.996;4.504;2023-05-07T09:52:05;21.82;65.98
71173;DHT22;58875;51.996;4.504;2023-05-07T09:54:32;21.88;64.65
71173;DHT22;58875;51.996;4.504;2023-05-07T09:56:59;21.84;63.89
71173;DHT22;58875;51.996;4.504;2023-05-07T09:59:29;21.89;65.35
71173;DHT22;58875;51.996;4.504;2023-05-07T10:01:58;22.04;64.74
71173;DHT22;58875;51.996;4.504;2023-05-07T10:04:25;22.05;62.83
71173;DHT22;58875;51.996;4.504;2023-05-07T10:06:52;22.12;64.84
71173;DHT22;58875;51.996;4.504;2023-05-07T10:09:19;22.20;64.63
71173;DHT22;58875;51.996;4.504;2023-05-07T10:11:46;22.45;64.26
71173;DHT22;58875;51.996;4.504;2023-05-07T10:14:14;22.76;62.45
71173;DHT22;58875;51.996;4.504;2023-05-07T10:16:41;22.87;61.85
71173;DHT22;58875;51.996;4.504;2023-05-07T10:19:08;22.83;63.18
71173;DHT22;58875;51.996;4.504;2023-05-07T10:21:39;23.11;61.82
71173;DHT22;58875;51.996;4.504;2023-05-07T10:24:16;23.48;62.37
71173;DHT22;58875;51.996;4.504;2023-05-07T10:26:49;23.65;59.74
71173;DHT22;58875;51.996;4.504;2023-05-07T10:34:53;23.51;58.60
71173;DHT22;58875;51.996;4.504;2023-05-07T10:37:21;23.29;59.28
71173;DHT22;58875;51.996;4.504;2023-05-07T10:39:47;23.14;60.12
71173;DHT22;58875;51.996;4.504;2023-05-07T10:42:14;22.98;58.96
71173;DHT22;58875;51.996;4.504;2023-05-07T10:44:40;23.00;60.48
71173;DHT22;58875;51.996;4.504;2023-05-07T10:47:10;22.83;59.98
71173;DHT22;58875;51.996;4.504;2023-05-07T10:52:24;22.68;60.42
71173;DHT22;58875;51.996;4.504;2023-05-07T10:57:38;22.64;61.33
71173;DHT22;58875;51.996;4.504;2023-05-07T11:05:29;22.93;59.52
71173;DHT22;58875;51.996;4.504;2023-05-07T11:07:57;23.10;58.99
71173;DHT22;58875;51.996;4.504;2023-05-07T11:10:54;23.19;59.10
71173;DHT22;58875;51.996;4.504;2023-05-07T11:13:43;23.10;57.50
71173;DHT22;58875;51.996;4.504;2023-05-07T11:16:22;23.11;58.65
71173;DHT22;58875;51.996;4.504;2023-05-07T11:18:56;23.08;58.87
71173;DHT22;58875;51.996;4.504;2023-05-07T11:21:39;23.25;59.99
71173;DHT22;58875;51.996;4.504;2023-05-07T11:24:09;23.35;59.54
71173;DHT22;58875;51.996;4.504;2023-05-07T11:26:44;23.35;57.71
71173;DHT22;58875;51.996;4.504;2023-05-07T11:29:12;23.24;57.73
71173;DHT22;58875;51.996;4.504;2023-05-07T11:31:38;22.91;58.54
71173;DHT22;58875;51.996;4.504;2023-05-07T11:34:05;22.93;60.89
71173;DHT22;58875;51.996;4.504;2023-05-07T11:36:32;23.05;59.92
71173;DHT22;58875;51.996;4.504;2023-05-07T11:38:58;22.94;60.27
71173;DHT22;58875;51.996;4.504;2023-05-07T11:41:36;22.98;59.60
71173;DHT22;58875;51.996;4.504;2023-05-07T11:44:04;22.93;59.29
71173;DHT22;58875;51.996;4.504;2023-05-07T11:46:30;22.87;61.00
71173;DHT22;58875;51.996;4.504;2023-05-07T11:48:56;23.18;59.14
71173;DHT22;58875;51.996;4.504;2023-05-07T11:51:25;23.37;58.84
71173;DHT22;58875;51.996;4.504;2023-05-07T11:53:52;23.77;58.67
71173;DHT22;58875;51.996;4.504;2023-05-07T11:56:18;23.70;57.39
71173;DHT22;58875;51.996;4.504;2023-05-07T11:58:46;23.79;57.61
71173;DHT22;58875;51.996;4.504;2023-05-07T12:01:13;24.05;57.65
71173;DHT22;58875;51.996;4.504;2023-05-07T12:03:43;24.27;56.54
71173;DHT22;58875;51.996;4.504;2023-05-07T12:06:12;23.96;55.83
71173;DHT22;58875;51.996;4.504;2023-05-07T12:08:42;23.58;57.94
71173;DHT22;58875;51.996;4.504;2023-05-07T12:11:13;23.51;58.77
71173;DHT22;58875;51.996;4.504;2023-05-07T12:13:40;23.55;59.45
71173;DHT22;58875;51.996;4.504;2023-05-07T12:16:07;23.61;59.21
71173;DHT22;58875;51.996;4.504;2023-05-07T12:18:34;23.51;58.11
71173;DHT22;58875;51.996;4.504;2023-05-07T12:21:01;23.24;60.27
71173;DHT22;58875;51.996;4.504;2023-05-07T12:23:27;23.00;58.91
71173;DHT22;58875;51.996;4.504;2023-05-07T12:25:53;22.91;59.35
71173;DHT22;58875;51.996;4.504;2023-05-07T12:28:19;22.80;60.34
71173;DHT22;58875;51.996;4.504;2023-05-07T12:30:47;22.84;60.71
71173;DHT22;58875;51.996;4.504;2023-05-07T12:33:17;22.76;60.59
71173;DHT22;58875;51.996;4.504;2023-05-07T12:35:43;22.70;62.83
71173;DHT22;58875;51.996;4.504;2023-05-07T12:38:14;22.61;60.78
71173;DHT22;58875;51.996;4.504;2023-05-07T12:40:46;22.04;63.05
71173;DHT22;58875;51.996;4.504;2023-05-07T12:45:44;21.02;66.23
71173;DHT22;58875;51.996;4.504;2023-05-07T12:48:10;20.83;67.66
71173;DHT22;58875;51.996;4.504;2023-05-07T12:50:36;20.55;69.43
71173;DHT22;58875;51.996;4.504;2023-05-07T12:53:04;20.46;69.93
71173;DHT22;58875;51.996;4.504;2023-05-07T12:55:45;20.20;70.89
71173;DHT22;58875;51.996;4.504;2023-05-07T12:58:36;20.01;71.19
71173;DHT22;58875;51.996;4.504;2023-05-07T13:01:07;19.84;71.79
71173;DHT22;58875;51.996;4.504;2023-05-07T13:03:35;19.85;72.66
71173;DHT22;58875;51.996;4.504;2023-05-07T13:06:06;19.85;72.94
71173;DHT22;58875;51.996;4.504;2023-05-07T13:08:32;19.95;72.63
71173;DHT22;58875;51.996;4.504;2023-05-07T13:11:00;20.13;72.50
71173;DHT22;58875;51.996;4.504;2023-05-07T13:13:33;20.15;72.50
71173;DHT22;58875;51.996;4.504;2023-05-07T13:16:01;20.26;71.91
71173;DHT22;58875;51.996;4.504;2023-05-07T13:18:28;20.26;72.17
71173;DHT22;58875;51.996;4.504;2023-05-07T13:20:54;20.21;72.66
71173;DHT22;58875;51.996;4.504;2023-05-07T13:23:20;20.17;73.01
71173;DHT22;58875;51.996;4.504;2023-05-07T13:25:47;20.03;72.61
71173;DHT22;58875;51.996;4.504;2023-05-07T13:28:12;19.84;72.00
71173;DHT22;58875;51.996;4.504;2023-05-07T13:30:38;19.77;72.45
71173;DHT22;58875;51.996;4.504;2023-05-07T13:33:06;19.85;72.75
71173;DHT22;58875;51.996;4.504;2023-05-07T13:35:32;19.74;72.34
71173;DHT22;58875;51.996;4.504;2023-05-07T13:37:58;19.67;72.70
71173;DHT22;58875;51.996;4.504;2023-05-07T13:40:24;19.62;73.03
71173;DHT22;58875;51.996;4.504;2023-05-07T13:42:50;19.66;72.85
71173;DHT22;58875;51.996;4.504;2023-05-07T13:45:17;19.67;72.46
71173;DHT22;58875;51.996;4.504;2023-05-07T13:47:43;19.73;72.36
71173;DHT22;58875;51.996;4.504;2023-05-07T13:50:10;19.84;72.44
71173;DHT22;58875;51.996;4.504;2023-05-07T13:52:37;19.91;72.42
71173;DHT22;58875;51.996;4.504;2023-05-07T13:55:03;19.95;72.58
71173;DHT22;58875;51.996;4.504;2023-05-07T13:57:29;19.97;72.62
71173;DHT22;58875;51.996;4.504;2023-05-07T13:59:55;19.98;72.31
71173;DHT22;58875;51.996;4.504;2023-05-07T14:02:20;19.94;72.25
71173;DHT22;58875;51.996;4.504;2023-05-07T14:04:46;19.95;72.39
71173;DHT22;58875;51.996;4.504;2023-05-07T14:07:11;20.05;72.30
71173;DHT22;58875;51.996;4.504;2023-05-07T14:09:37;20.13;72.42
71173;DHT22;58875;51.996;4.504;2023-05-07T14:12:03;20.17;72.99
71173;DHT22;58875;51.996;4.504;2023-05-07T14:14:28;20.18;72.67
71173;DHT22;58875;51.996;4.504;2023-05-07T14:16:54;20.10;72.90
71173;DHT22;58875;51.996;4.504;2023-05-07T14:19:19;20.03;72.54
71173;DHT22;58875;51.996;4.504;2023-05-07T14:21:45;19.85;72.16
71173;DHT22;58875;51.996;4.504;2023-05-07T14:24:10;19.75;73.26
71173;DHT22;58875;51.996;4.504;2023-05-07T14:26:36;19.78;73.19
71173;DHT22;58875;51.996;4.504;2023-05-07T14:29:03;19.84;72.94
71173;DHT22;58875;51.996;4.504;2023-05-07T14:31:29;19.93;73.15
71173;DHT22;58875;51.996;4.504;2023-05-07T14:33:54;19.95;72.88
71173;DHT22;58875;51.996;4.504;2023-05-07T14:36:20;19.85;73.29
71173;DHT22;58875;51.996;4.504;2023-05-07T14:38:48;19.78;73.99
71173;DHT22;58875;51.996;4.504;2023-05-07T14:41:13;19.87;73.85
71173;DHT22;58875;51.996;4.504;2023-05-07T14:43:40;19.90;73.68
71173;DHT22;58875;51.996;4.504;2023-05-07T14:46:05;19.97;73.68
71173;DHT22;58875;51.996;4.504;2023-05-07T14:48:31;20.04;73.95
71173;DHT22;58875;51.996;4.504;2023-05-07T14:50:56;20.13;73.49
71173;DHT22;58875;51.996;4.504;2023-05-07T14:53:22;20.05;73.64
71173;DHT22;58875;51.996;4.504;2023-05-07T14:55:48;20.01;73.53
71173;DHT22;58875;51.996;4.504;2023-05-07T14:58:14;19.93;74.45
71173;DHT22;58875;51.996;4.504;2023-05-07T15:00:40;19.93;74.63
71173;DHT22;58875;51.996;4.504;2023-05-07T15:03:07;19.88;75.43
71173;DHT22;58875;51.996;4.504;2023-05-07T15:05:33;19.83;75.67
71173;DHT22;58875;51.996;4.504;2023-05-07T15:07:59;19.69;75.87
71173;DHT22;58875;51.996;4.504;2023-05-07T15:10:25;19.63;76.36
71173;DHT22;58875;51.996;4.504;2023-05-07T15:12:51;19.52;76.75
71173;DHT22;58875;51.996;4.504;2023-05-07T15:15:17;19.45;77.60
71173;DHT22;58875;51.996;4.504;2023-05-07T15:17:42;19.46;77.88
71173;DHT22;58875;51.996;4.504;2023-05-07T15:20:08;19.42;78.44
71173;DHT22;58875;51.996;4.504;2023-05-07T15:22:35;19.47;79.21
71173;DHT22;58875;51.996;4.504;2023-05-07T15:25:03;19.43;78.90
71173;DHT22;58875;51.996;4.504;2023-05-07T15:27:30;19.39;79.12
71173;DHT22;58875;51.996;4.504;2023-05-07T15:29:56;19.32;79.04
71173;DHT22;58875;51.996;4.504;2023-05-07T15:32:22;19.29;79.26
71173;DHT22;58875;51.996;4.504;2023-05-07T15:34:48;19.26;79.30
71173;DHT22;58875;51.996;4.504;2023-05-07T15:37:13;19.23;79.76
71173;DHT22;58875;51.996;4.504;2023-05-07T15:39:39;19.29;79.81
71173;DHT22;58875;51.996;4.504;2023-05-07T15:42:04;19.33;79.90
71173;DHT22;58875;51.996;4.504;2023-05-07T15:44:30;19.34;79.73
71173;DHT22;58875;51.996;4.504;2023-05-07T15:46:59;19.32;79.67